Time;durP1;ratioP1;P1;durP2;ratioP2;P2;SDS_P1;SDS_P2;PMS_P1;PMS_P2;Temp;Humidity;BMP_temperature;BMP_pressure;BME280_temperature;BME280_humidity;BME280_pressure;Samples;Min_cycle;Max_cycle;Signal;HPM_P1;HPM_P2
2023/04/11 00:00:00;;;;;;;1315.70;277.47;;;;;;;;;;10531310;28;20036;-82
2023/04/11 00:05:02;;;;;;;408.27;92.63;;;;;;;;;;10530212;28;20398;-81
2023/04/11 00:10:03;;;;;;;419.30;99.53;;;;;;;;;;10527628;28;20034;-81
2023/04/11 00:15:04;;;;;;;593.07;131.90;;;;;;;;;;10531465;28;20415;-82
2023/04/11 00:20:06;;;;;;;488.77;110.03;;;;;;;;;;10530347;28;20082;-82
2023/04/11 00:25:07;;;;;;;530.87;112.50;;;;;;;;;;10511771;28;20072;-83
2023/04/11 00:30:10;;;;;;;563.83;121.53;;;;;;;;;;10530363;28;20035;-81
2023/04/11 00:35:15;;;;;;;585.10;121.50;;;;;;;;;;10529362;28;20044;-83
2023/04/11 00:40:17;;;;;;;520.33;108.63;;;;;;;;;;10530472;28;20126;-81
2023/04/11 00:45:18;;;;;;;328.20;73.00;;;;;;;;;;10529141;28;20030;-82
2023/04/11 00:50:21;;;;;;;611.23;128.90;;;;;;;;;;10529064;28;20054;-80
2023/04/11 00:55:22;;;;;;;533.87;119.43;;;;;;;;;;10529484;28;20067;-81
2023/04/11 01:00:23;;;;;;;882.37;185.40;;;;;;;;;;10510589;28;21600;-81
2023/04/11 01:05:25;;;;;;;896.03;207.07;;;;;;;;;;10484772;28;20615;-82
2023/04/11 01:10:29;;;;;;;795.97;172.97;;;;;;;;;;10486191;28;20040;-82
2023/04/11 01:15:30;;;;;;;539.60;114.10;;;;;;;;;;10485999;28;20236;-82
2023/04/11 01:20:32;;;;;;;601.73;126.77;;;;;;;;;;10485634;28;20455;-83
2023/04/11 01:25:37;;;;;;;602.13;124.30;;;;;;;;;;10485709;28;20758;-82
2023/04/11 01:30:38;;;;;;;640.00;132.93;;;;;;;;;;10485756;28;20716;-81
2023/04/11 01:35:39;;;;;;;541.70;124.67;;;;;;;;;;10485201;28;20028;-81
2023/04/11 01:40:41;;;;;;;587.17;130.60;;;;;;;;;;10485798;28;20443;-82
2023/04/11 01:45:42;;;;;;;572.17;124.63;;;;;;;;;;10485395;28;20032;-82
2023/04/11 01:50:42;;;;;;;545.50;111.83;;;;;;;;;;10483605;28;20032;-82
2023/04/11 01:55:43;;;;;;;616.60;126.90;;;;;;;;;;10485368;28;20064;-83
2023/04/11 02:00:44;;;;;;;548.07;110.83;;;;;;;;;;10485440;28;20028;-82
2023/04/11 02:05:46;;;;;;;377.43;77.67;;;;;;;;;;10522007;28;20491;-81
2023/04/11 02:10:47;;;;;;;534.73;102.43;;;;;;;;;;10526663;28;20060;-82
2023/04/11 02:15:47;;;;;;;558.53;98.93;;;;;;;;;;10525722;28;20107;-80
2023/04/11 02:20:49;;;;;;;558.67;100.20;;;;;;;;;;10524545;28;20390;-82
2023/04/11 02:25:50;;;;;;;513.93;95.87;;;;;;;;;;10526714;28;20024;-80
2023/04/11 02:30:51;;;;;;;389.00;77.30;;;;;;;;;;10534140;28;20031;-82
2023/04/11 02:35:52;;;;;;;434.33;85.53;;;;;;;;;;10521943;28;20036;-81
2023/04/11 02:40:53;;;;;;;446.17;83.40;;;;;;;;;;10539683;28;20162;-81
2023/04/11 02:45:54;;;;;;;342.67;68.10;;;;;;;;;;10521377;28;20181;-81
2023/04/11 02:50:55;;;;;;;375.43;74.33;;;;;;;;;;10511793;28;20037;-82
2023/04/11 02:55:55;;;;;;;392.33;73.00;;;;;;;;;;10539872;28;20119;-82
2023/04/11 03:00:56;;;;;;;231.87;49.50;;;;;;;;;;10539181;28;20032;-82
2023/04/11 03:05:57;;;;;;;280.37;53.87;;;;;;;;;;10538804;28;20075;-82
2023/04/11 03:10:59;;;;;;;261.67;50.50;;;;;;;;;;10538102;28;20458;-82
2023/04/11 03:15:59;;;;;;;245.57;46.93;;;;;;;;;;10539273;28;20627;-81
2023/04/11 03:21:00;;;;;;;349.47;67.03;;;;;;;;;;10538822;28;20028;-81
2023/04/11 03:26:02;;;;;;;457.60;81.33;;;;;;;;;;10525561;28;20122;-81
2023/04/11 03:31:02;;;;;;;236.60;46.73;;;;;;;;;;10538820;28;20469;-82
2023/04/11 03:36:04;;;;;;;386.20;71.73;;;;;;;;;;10538309;28;20036;-82
2023/04/11 03:41:05;;;;;;;390.03;68.70;;;;;;;;;;10534389;28;20039;-82
2023/04/11 03:46:06;;;;;;;368.27;67.57;;;;;;;;;;10531626;28;20032;-80
2023/04/11 03:51:07;;;;;;;305.87;61.00;;;;;;;;;;10531451;28;20032;-83
2023/04/11 03:56:09;;;;;;;408.27;74.80;;;;;;;;;;10531457;28;20036;-82
2023/04/11 04:01:10;;;;;;;465.30;83.00;;;;;;;;;;10529816;28;20443;-83
2023/04/11 04:06:10;;;;;;;499.37;86.97;;;;;;;;;;10501056;28;20057;-82
2023/04/11 04:11:11;;;;;;;445.20;79.27;;;;;;;;;;10476583;28;20032;-81
2023/04/11 04:16:12;;;;;;;430.13;73.20;;;;;;;;;;10490049;28;20093;-83
2023/04/11 04:21:15;;;;;;;572.80;89.37;;;;;;;;;;10484901;28;20024;-83
2023/04/11 04:26:16;;;;;;;575.77;110.73;;;;;;;;;;10487066;28;20017;-83
2023/04/11 04:31:21;;;;;;;416.57;81.90;;;;;;;;;;10481481;28;20029;-81
2023/04/11 04:36:23;;;;;;;470.57;108.07;;;;;;;;;;10477624;28;20028;-81
2023/04/11 04:41:24;;;;;;;281.37;57.60;;;;;;;;;;10488573;28;20028;-82
2023/04/11 04:46:25;;;;;;;320.87;60.67;;;;;;;;;;10487680;28;20028;-81
2023/04/11 04:51:29;;;;;;;363.17;69.93;;;;;;;;;;10475786;28;20353;-82
2023/04/11 04:56:30;;;;;;;467.97;99.60;;;;;;;;;;10469693;28;20558;-83
2023/04/11 05:01:31;;;;;;;354.20;84.00;;;;;;;;;;10489726;28;20483;-82
2023/04/11 05:06:32;;;;;;;505.97;135.60;;;;;;;;;;10528792;28;20039;-83
2023/04/11 05:11:33;;;;;;;386.20;73.87;;;;;;;;;;10511192;28;20024;-81
2023/04/11 05:16:36;;;;;;;402.63;82.53;;;;;;;;;;10528406;28;20043;-82
2023/04/11 05:21:37;;;;;;;317.13;74.37;;;;;;;;;;10528525;28;20110;-81
2023/04/11 05:26:38;;;;;;;382.87;91.17;;;;;;;;;;10528446;28;20379;-81
2023/04/11 05:31:39;;;;;;;336.60;82.67;;;;;;;;;;10528250;28;20024;-82
2023/04/11 05:36:40;;;;;;;344.00;78.17;;;;;;;;;;10502859;28;20101;-82
2023/04/11 05:41:42;;;;;;;380.87;85.77;;;;;;;;;;10519296;28;20032;-82
2023/04/11 05:46:43;;;;;;;232.17;69.27;;;;;;;;;;10501435;28;20478;-82
2023/04/11 05:51:44;;;;;;;193.93;55.13;;;;;;;;;;10504895;28;20036;-81
2023/04/11 05:56:45;;;;;;;186.60;57.07;;;;;;;;;;10525954;28;20083;-82
2023/04/11 06:01:46;;;;;;;136.73;43.37;;;;;;;;;;10522908;28;20130;-82
2023/04/11 06:06:47;;;;;;;146.93;55.80;;;;;;;;;;10509704;28;20035;-82
2023/04/11 06:11:47;;;;;;;129.97;49.57;;;;;;;;;;10501869;28;20059;-82
2023/04/11 06:16:49;;;;;;;132.43;50.40;;;;;;;;;;10510905;28;20029;-83
2023/04/11 06:21:50;;;;;;;77.87;38.37;;;;;;;;;;10488835;28;20749;-83
2023/04/11 06:26:53;;;;;;;81.87;37.90;;;;;;;;;;10501441;28;20039;-81
2023/04/11 06:31:58;;;;;;;84.20;37.90;;;;;;;;;;10488617;28;20039;-81
2023/04/11 06:36:59;;;;;;;75.17;33.10;;;;;;;;;;10479405;28;20033;-82
2023/04/11 06:42:01;;;;;;;71.23;34.07;;;;;;;;;;10485792;28;20106;-82
2023/04/11 06:47:02;;;;;;;66.57;34.27;;;;;;;;;;10481791;28;20043;-81
2023/04/11 06:52:03;;;;;;;64.07;30.63;;;;;;;;;;10483485;28;20081;-83
2023/04/11 06:57:04;;;;;;;56.93;29.10;;;;;;;;;;10504889;28;20036;-82
2023/04/11 07:02:05;;;;;;;62.67;32.17;;;;;;;;;;10501627;28;20048;-81
2023/04/11 07:07:06;;;;;;;58.65;30.50;;;;;;;;;;10522414;28;20123;-82
2023/04/11 07:12:07;;;;;;;49.92;24.88;;;;;;;;;;10511069;28;20024;-81
2023/04/11 07:17:08;;;;;;;57.70;28.35;;;;;;;;;;10511529;28;20028;-79
2023/04/11 07:22:09;;;;;;;53.53;26.75;;;;;;;;;;10517494;28;20024;-83
2023/04/11 07:27:12;;;;;;;47.42;22.77;;;;;;;;;;10516925;28;20111;-81
2023/04/11 07:32:14;;;;;;;40.63;20.20;;;;;;;;;;10528716;28;20251;-82
2023/04/11 07:37:15;;;;;;;40.15;21.60;;;;;;;;;;10528851;28;20040;-81
2023/04/11 07:42:16;;;;;;;32.95;18.42;;;;;;;;;;10530977;28;20026;-82
2023/04/11 07:47:17;;;;;;;39.13;19.40;;;;;;;;;;10528937;28;20032;-82
2023/04/11 07:52:18;;;;;;;25.90;13.55;;;;;;;;;;10529289;28;20114;-80
2023/04/11 07:57:19;;;;;;;24.33;12.50;;;;;;;;;;10529836;28;20048;-80
2023/04/11 08:02:20;;;;;;;25.88;13.73;;;;;;;;;;10526043;28;20431;-81
2023/04/11 08:07:21;;;;;;;21.08;11.88;;;;;;;;;;10490289;28;20124;-82
2023/04/11 08:12:22;;;;;;;20.35;10.07;;;;;;;;;;10502310;28;20029;-81
2023/04/11 08:17:24;;;;;;;15.43;10.85;;;;;;;;;;10490383;28;20025;-82
2023/04/11 08:22:26;;;;;;;19.73;12.25;;;;;;;;;;10489001;28;20113;-81
2023/04/11 08:27:27;;;;;;;19.58;11.18;;;;;;;;;;10501319;28;20043;-80
2023/04/11 08:32:28;;;;;;;18.70;9.20;;;;;;;;;;10488623;28;20033;-80
2023/04/11 08:37:30;;;;;;;14.18;8.68;;;;;;;;;;10498529;28;20051;-79
2023/04/11 08:42:31;;;;;;;11.90;7.07;;;;;;;;;;10500977;28;20093;-79
2023/04/11 08:47:32;;;;;;;18.50;10.85;;;;;;;;;;10499592;28;20147;-80
2023/04/11 08:52:33;;;;;;;18.80;8.65;;;;;;;;;;10489084;28;20078;-81
2023/04/11 08:57:36;;;;;;;21.98;12.32;;;;;;;;;;10497115;28;20040;-81
2023/04/11 09:02:54;;;;;;;18.33;10.18;;;;;;;;;;10504210;28;20055;-80
2023/04/11 09:07:56;;;;;;;17.73;9.70;;;;;;;;;;10489551;28;20047;-81
2023/04/11 09:12:57;;;;;;;24.10;12.32;;;;;;;;;;10492974;28;20031;-80
2023/04/11 09:17:58;;;;;;;15.02;9.98;;;;;;;;;;10499083;28;20059;-79
2023/04/11 09:22:59;;;;;;;17.40;8.73;;;;;;;;;;10495642;28;20032;-79
2023/04/11 09:28:07;;;;;;;19.00;12.95;;;;;;;;;;10487029;28;20020;-80
2023/04/11 09:33:21;;;;;;;19.08;10.60;;;;;;;;;;10489145;28;20552;-80
2023/04/11 09:38:28;;;;;;;14.48;8.95;;;;;;;;;;10488704;28;20060;-78
2023/04/11 09:43:49;;;;;;;17.42;8.80;;;;;;;;;;10486107;28;20821;-79
2023/04/11 09:48:51;;;;;;;10.52;6.18;;;;;;;;;;10486039;28;20036;-79
2023/04/11 09:53:52;;;;;;;9.00;6.13;;;;;;;;;;10490899;28;20021;-78
2023/04/11 09:58:54;;;;;;;10.98;6.60;;;;;;;;;;10485418;28;20531;-80
2023/04/11 10:03:55;;;;;;;9.68;6.10;;;;;;;;;;10496393;28;20109;-80
2023/04/11 10:09:03;;;;;;;12.82;7.50;;;;;;;;;;10499353;28;20607;-79
2023/04/11 10:14:04;;;;;;;13.38;8.98;;;;;;;;;;10496857;28;20124;-79
2023/04/11 10:19:05;;;;;;;16.67;11.45;;;;;;;;;;10494711;28;20040;-79
2023/04/11 10:24:10;;;;;;;17.48;10.90;;;;;;;;;;10489102;28;20025;-78
2023/04/11 10:34:30;;;;;;;15.57;9.35;;;;;;;;;;10484805;28;20511;-79
2023/04/11 10:39:50;;;;;;;12.57;9.40;;;;;;;;;;10489793;28;20048;-78
2023/04/11 10:45:10;;;;;;;18.20;10.70;;;;;;;;;;10499061;28;20039;-79
2023/04/11 10:50:30;;;;;;;13.35;9.18;;;;;;;;;;10496523;28;20024;-79
2023/04/11 10:55:42;;;;;;;15.73;10.02;;;;;;;;;;10511022;28;20036;-79
2023/04/11 11:00:47;;;;;;;17.38;9.88;;;;;;;;;;10506020;28;20492;-78
2023/04/11 11:05:57;;;;;;;12.10;7.60;;;;;;;;;;10528947;28;20665;-79
2023/04/11 11:11:02;;;;;;;16.58;13.95;;;;;;;;;;10532441;28;20119;-79
2023/04/11 11:16:03;;;;;;;20.90;13.83;;;;;;;;;;10532834;28;20161;-79
2023/04/11 11:21:04;;;;;;;11.52;7.13;;;;;;;;;;10533671;28;20040;-77
2023/04/11 11:26:05;;;;;;;13.63;9.63;;;;;;;;;;10533054;28;20386;-78
2023/04/11 11:31:06;;;;;;;10.13;7.05;;;;;;;;;;10532278;28;20032;-78
2023/04/11 11:36:08;;;;;;;10.52;6.95;;;;;;;;;;10531843;28;20016;-78
2023/04/11 11:41:09;;;;;;;8.43;6.10;;;;;;;;;;10531608;28;20051;-78
2023/04/11 11:46:13;;;;;;;18.25;10.43;;;;;;;;;;10533745;28;20039;-78
2023/04/11 11:51:14;;;;;;;10.45;6.03;;;;;;;;;;10531182;28;20037;-77
2023/04/11 11:56:15;;;;;;;9.73;5.47;;;;;;;;;;10530776;28;20028;-79
2023/04/11 12:01:16;;;;;;;18.17;10.75;;;;;;;;;;10529851;28;20492;-78
2023/04/11 12:06:18;;;;;;;10.20;7.20;;;;;;;;;;10531417;28;20200;-78
2023/04/11 12:11:19;;;;;;;36.67;16.08;;;;;;;;;;10526221;28;20039;-78
2023/04/11 12:16:23;;;;;;;29.60;15.95;;;;;;;;;;10520358;28;20154;-78
2023/04/11 12:21:24;;;;;;;13.07;7.47;;;;;;;;;;10520965;28;20039;-79
2023/04/11 12:26:25;;;;;;;58.70;30.40;;;;;;;;;;10523398;28;20103;-78
2023/04/11 12:31:26;;;;;;;14.38;7.95;;;;;;;;;;10523013;28;20570;-79
2023/04/11 12:36:28;;;;;;;17.20;9.40;;;;;;;;;;10503375;28;20033;-81
2023/04/11 12:41:29;;;;;;;31.92;15.35;;;;;;;;;;10505331;28;20085;-78
2023/04/11 12:46:32;;;;;;;27.30;13.43;;;;;;;;;;10528338;28;20043;-78
2023/04/11 12:51:33;;;;;;;12.32;7.57;;;;;;;;;;10518453;28;20017;-78
2023/04/11 12:56:34;;;;;;;11.23;7.50;;;;;;;;;;10513543;28;20033;-80
2023/04/11 13:01:35;;;;;;;12.88;8.20;;;;;;;;;;10509624;28;20079;-79
2023/04/11 13:06:36;;;;;;;16.08;9.73;;;;;;;;;;10488853;28;20043;-80
2023/04/11 13:11:37;;;;;;;13.88;8.30;;;;;;;;;;10485696;28;20033;-78
2023/04/11 13:16:38;;;;;;;18.45;9.60;;;;;;;;;;10470797;28;20093;-78
2023/04/11 13:21:39;;;;;;;16.73;8.50;;;;;;;;;;10501403;28;20037;-80
2023/04/11 13:26:40;;;;;;;21.92;10.65;;;;;;;;;;10495961;28;20111;-78
2023/04/11 13:31:44;;;;;;;11.75;6.88;;;;;;;;;;10496102;28;20033;-78
2023/04/11 13:36:45;;;;;;;17.30;10.45;;;;;;;;;;10497197;28;20054;-78
2023/04/11 13:41:46;;;;;;;13.95;8.48;;;;;;;;;;10464963;28;20040;-79
2023/04/11 13:46:46;;;;;;;12.05;7.47;;;;;;;;;;10477836;28;20028;-78
2023/04/11 13:51:47;;;;;;;25.25;14.23;;;;;;;;;;10486215;28;20032;-78
2023/04/11 13:56:48;;;;;;;11.18;6.70;;;;;;;;;;10493101;28;20059;-77
2023/04/11 14:01:49;;;;;;;9.85;6.70;;;;;;;;;;10489101;28;20055;-79
2023/04/11 14:06:52;;;;;;;10.43;6.95;;;;;;;;;;10526979;28;20479;-78
2023/04/11 14:11:53;;;;;;;12.52;8.15;;;;;;;;;;10528812;28;20059;-78
2023/04/11 14:16:54;;;;;;;13.55;8.23;;;;;;;;;;10516936;28;20111;-78
2023/04/11 14:21:56;;;;;;;12.63;8.38;;;;;;;;;;10517365;28;20032;-78
2023/04/11 14:26:57;;;;;;;14.75;8.77;;;;;;;;;;10525667;28;20024;-77
2023/04/11 14:31:58;;;;;;;15.38;9.38;;;;;;;;;;10525511;28;20032;-80
2023/04/11 14:36:59;;;;;;;18.65;11.23;;;;;;;;;;10525379;28;20044;-80
2023/04/11 14:42:00;;;;;;;16.90;11.02;;;;;;;;;;10508543;28;20055;-77
2023/04/11 14:47:02;;;;;;;19.50;11.88;;;;;;;;;;10518614;28;20028;-79
2023/04/11 14:52:03;;;;;;;20.60;12.02;;;;;;;;;;10526383;28;20024;-81
2023/04/11 14:57:06;;;;;;;29.08;19.65;;;;;;;;;;10525202;28;20528;-79
2023/04/11 15:02:07;;;;;;;28.92;14.85;;;;;;;;;;10523252;28;20137;-79
2023/04/11 15:07:08;;;;;;;28.73;14.85;;;;;;;;;;10524333;28;20039;-79
2023/04/11 15:12:13;;;;;;;20.90;12.25;;;;;;;;;;10524623;28;20113;-79
2023/04/11 15:17:15;;;;;;;28.40;16.75;;;;;;;;;;10524727;28;20089;-80
2023/04/11 15:22:16;;;;;;;30.98;15.90;;;;;;;;;;10525575;28;20027;-79
2023/04/11 15:27:19;;;;;;;30.48;17.23;;;;;;;;;;10520124;28;20035;-80
2023/04/11 15:32:20;;;;;;;33.70;16.83;;;;;;;;;;10510541;28;20049;-80
2023/04/11 15:37:21;;;;;;;34.28;19.15;;;;;;;;;;10521370;28;20058;-81
2023/04/11 15:42:23;;;;;;;38.70;20.65;;;;;;;;;;10505818;28;20565;-79
2023/04/11 15:47:24;;;;;;;40.25;21.83;;;;;;;;;;10531828;28;20027;-80
2023/04/11 15:52:25;;;;;;;27.00;14.93;;;;;;;;;;10515536;28;20392;-79
2023/04/11 15:57:27;;;;;;;21.15;11.68;;;;;;;;;;10526048;28;20036;-81
2023/04/11 16:02:28;;;;;;;21.70;11.65;;;;;;;;;;10526793;28;20048;-81
2023/04/11 16:07:29;;;;;;;22.38;12.27;;;;;;;;;;10494236;28;20627;-82
2023/04/11 16:12:30;;;;;;;28.38;16.10;;;;;;;;;;10502167;28;20028;-80
2023/04/11 16:17:32;;;;;;;36.97;20.58;;;;;;;;;;10483148;28;20491;-82
2023/04/11 16:22:33;;;;;;;49.67;28.98;;;;;;;;;;10482962;28;20486;-82
2023/04/11 16:27:34;;;;;;;41.15;22.20;;;;;;;;;;10490901;28;20036;-81
2023/04/11 16:32:35;;;;;;;25.63;14.90;;;;;;;;;;10495588;28;20032;-81
2023/04/11 16:37:36;;;;;;;23.75;14.15;;;;;;;;;;10490408;28;20044;-80
2023/04/11 16:42:38;;;;;;;24.13;14.82;;;;;;;;;;10466848;28;20028;-82
2023/04/11 16:47:39;;;;;;;23.25;13.52;;;;;;;;;;10491613;28;20521;-82
2023/04/11 16:52:40;;;;;;;20.88;12.48;;;;;;;;;;10487341;28;20391;-81
2023/04/11 16:57:41;;;;;;;20.92;12.65;;;;;;;;;;10491131;28;20048;-82
2023/04/11 17:02:42;;;;;;;21.57;11.80;;;;;;;;;;10498976;28;20707;-82
2023/04/11 17:07:43;;;;;;;19.20;10.80;;;;;;;;;;10528449;28;20032;-83
2023/04/11 17:12:44;;;;;;;24.97;11.17;;;;;;;;;;10512015;28;20048;-81
2023/04/11 17:17:45;;;;;;;17.70;9.87;;;;;;;;;;10527575;28;20044;-82
2023/04/11 17:22:46;;;;;;;15.30;8.27;;;;;;;;;;10528224;28;20540;-82
2023/04/11 17:27:47;;;;;;;17.83;9.17;;;;;;;;;;10527537;28;20487;-85
2023/04/11 17:32:48;;;;;;;20.43;10.50;;;;;;;;;;10527594;28;20016;-84
2023/04/11 17:37:49;;;;;;;14.60;7.67;;;;;;;;;;10539254;28;20093;-83
2023/04/11 17:42:51;;;;;;;12.77;6.17;;;;;;;;;;10527567;28;20427;-85
2023/04/11 17:47:52;;;;;;;14.27;4.70;;;;;;;;;;10526049;28;20032;-84
2023/04/11 17:52:53;;;;;;;8.37;3.77;;;;;;;;;;10525497;28;20020;-84
2023/04/11 17:57:54;;;;;;;5.67;3.20;;;;;;;;;;10526443;28;20578;-83
2023/04/11 18:02:59;;;;;;;5.83;2.73;;;;;;;;;;10525817;28;20058;-81
2023/04/11 18:08:02;;;;;;;7.35;2.78;;;;;;;;;;10526684;28;20032;-83
2023/04/11 18:13:03;;;;;;;7.97;3.67;;;;;;;;;;10526772;28;20024;-85
2023/04/11 18:18:08;;;;;;;10.10;4.60;;;;;;;;;;10525150;28;20554;-85
2023/04/11 18:23:09;;;;;;;8.43;4.17;;;;;;;;;;10525381;28;20032;-81
2023/04/11 18:28:10;;;;;;;9.90;4.20;;;;;;;;;;10516020;28;20027;-80
2023/04/11 18:33:11;;;;;;;13.20;4.77;;;;;;;;;;10512491;28;20111;-82
2023/04/11 18:38:12;;;;;;;12.67;5.73;;;;;;;;;;10515160;28;20768;-83
2023/04/11 18:43:13;;;;;;;15.83;7.27;;;;;;;;;;10524698;28;20112;-81
2023/04/11 18:48:14;;;;;;;12.93;6.03;;;;;;;;;;10524060;28;20501;-81
2023/04/11 18:53:15;;;;;;;16.23;6.87;;;;;;;;;;10524255;28;20067;-81
2023/04/11 18:58:16;;;;;;;15.43;6.80;;;;;;;;;;10525049;28;20040;-81
2023/04/11 19:03:17;;;;;;;15.70;6.60;;;;;;;;;;10524072;28;20051;-81
2023/04/11 19:08:18;;;;;;;17.33;7.30;;;;;;;;;;10525765;28;20058;-82
2023/04/11 19:13:19;;;;;;;27.43;12.13;;;;;;;;;;10531359;28;20119;-80
2023/04/11 19:18:20;;;;;;;25.63;10.17;;;;;;;;;;10527930;28;20044;-81
2023/04/11 19:23:21;;;;;;;16.23;6.97;;;;;;;;;;10532841;28;20119;-81
2023/04/11 19:28:22;;;;;;;16.90;7.00;;;;;;;;;;10519489;28;20034;-78
2023/04/11 19:33:24;;;;;;;15.73;7.10;;;;;;;;;;10529490;28;20066;-80
2023/04/11 19:38:26;;;;;;;13.70;6.83;;;;;;;;;;10522061;28;20122;-80
2023/04/11 19:43:27;;;;;;;18.87;7.60;;;;;;;;;;10529163;28;20031;-79
2023/04/11 19:48:28;;;;;;;28.33;11.43;;;;;;;;;;10529109;28;20026;-82
2023/04/11 19:53:29;;;;;;;31.23;14.40;;;;;;;;;;10541547;28;20044;-82
2023/04/11 19:58:34;;;;;;;27.93;12.23;;;;;;;;;;10540161;28;20040;-81
2023/04/11 20:03:35;;;;;;;31.90;14.50;;;;;;;;;;10516025;28;20052;-81
2023/04/11 20:08:36;;;;;;;31.37;14.53;;;;;;;;;;10483639;28;20450;-81
2023/04/11 20:13:38;;;;;;;44.63;19.77;;;;;;;;;;10492920;28;20027;-81
2023/04/11 20:18:38;;;;;;;60.20;27.23;;;;;;;;;;10500307;28;20028;-82
2023/04/11 20:23:40;;;;;;;68.47;29.30;;;;;;;;;;10467845;28;20247;-83
2023/04/11 20:28:41;;;;;;;58.30;26.87;;;;;;;;;;10464519;28;20085;-82
2023/04/11 20:33:44;;;;;;;65.60;29.67;;;;;;;;;;10465196;28;20503;-83
2023/04/11 20:38:45;;;;;;;56.13;23.53;;;;;;;;;;10458923;28;20774;-81
2023/04/11 20:43:46;;;;;;;51.83;22.53;;;;;;;;;;10458901;28;20029;-82
2023/04/11 20:48:48;;;;;;;47.77;21.33;;;;;;;;;;10479600;28;20048;-81
2023/04/11 20:53:49;;;;;;;42.20;19.60;;;;;;;;;;10449357;28;20436;-82
2023/04/11 20:58:50;;;;;;;51.00;21.90;;;;;;;;;;10468201;28;20036;-82
2023/04/11 21:03:52;;;;;;;44.30;20.23;;;;;;;;;;10485496;28;20052;-81
2023/04/11 21:08:53;;;;;;;45.00;22.57;;;;;;;;;;10497098;28;20036;-82
2023/04/11 21:13:54;;;;;;;47.67;19.60;;;;;;;;;;10510884;28;20040;-81
2023/04/11 21:18:55;;;;;;;42.33;20.07;;;;;;;;;;10525425;28;20041;-81
2023/04/11 21:23:56;;;;;;;44.73;19.07;;;;;;;;;;10529315;28;20032;-81
2023/04/11 21:28:57;;;;;;;37.27;17.80;;;;;;;;;;10528878;28;20032;-81
2023/04/11 21:33:58;;;;;;;40.23;17.70;;;;;;;;;;10527032;28;20031;-83
2023/04/11 21:38:59;;;;;;;39.17;18.97;;;;;;;;;;10528544;28;20048;-82
2023/04/11 21:44:00;;;;;;;43.17;19.90;;;;;;;;;;10528162;28;20047;-81
2023/04/11 21:49:01;;;;;;;40.93;18.87;;;;;;;;;;10527512;28;20092;-82
2023/04/11 21:54:05;;;;;;;40.20;17.27;;;;;;;;;;10527977;28;20024;-83
2023/04/11 21:59:06;;;;;;;47.67;20.33;;;;;;;;;;10528009;28;20070;-83
2023/04/11 22:04:09;;;;;;;37.83;18.00;;;;;;;;;;10527459;28;20044;-81
2023/04/11 22:09:10;;;;;;;37.47;16.37;;;;;;;;;;10541523;28;20032;-82
2023/04/11 22:14:15;;;;;;;37.03;16.53;;;;;;;;;;10527330;28;20012;-83
2023/04/11 22:19:19;;;;;;;34.47;15.73;;;;;;;;;;10526690;28;20071;-81
2023/04/11 22:24:22;;;;;;;30.23;14.20;;;;;;;;;;10527082;28;20195;-81
2023/04/11 22:29:29;;;;;;;41.27;16.57;;;;;;;;;;10527407;28;20505;-81
2023/04/11 22:34:30;;;;;;;36.00;16.40;;;;;;;;;;10524983;28;20115;-81
2023/04/11 22:39:31;;;;;;;42.53;17.53;;;;;;;;;;10526687;28;20044;-81
2023/04/11 22:44:32;;;;;;;40.73;16.90;;;;;;;;;;10525822;28;20470;-80
2023/04/11 22:49:39;;;;;;;40.47;17.33;;;;;;;;;;10534235;28;20110;-81
2023/04/11 22:54:41;;;;;;;32.00;15.83;;;;;;;;;;10516644;28;20040;-82
2023/04/11 22:59:42;;;;;;;40.53;17.67;;;;;;;;;;10534103;28;20076;-82
2023/04/11 23:04:43;;;;;;;31.50;14.90;;;;;;;;;;10534474;28;20127;-83
2023/04/11 23:09:46;;;;;;;28.77;12.50;;;;;;;;;;10534222;28;20169;-83
2023/04/11 23:14:49;;;;;;;26.87;12.90;;;;;;;;;;10534104;28;20016;-84
2023/04/11 23:19:50;;;;;;;26.00;13.07;;;;;;;;;;10547038;28;20841;-85
2023/04/11 23:24:52;;;;;;;28.27;14.37;;;;;;;;;;10533594;28;20055;-82
2023/04/11 23:35:33;;;;;;;24.70;11.63;;;;;;;;;;10530927;28;20056;-83
2023/04/11 23:40:34;;;;;;;18.80;8.50;;;;;;;;;;10533234;28;20053;-84
2023/04/11 23:45:35;;;;;;;25.20;11.87;;;;;;;;;;10532571;28;20094;-83
2023/04/11 23:50:36;;;;;;;24.93;12.60;;;;;;;;;;10514332;28;20032;-83
2023/04/11 23:55:39;;;;;;;19.67;10.43;;;;;;;;;;10532065;28;20059;-83
